sensor_id;sensor_type;location;lat;lon;timestamp;pressure;altitude;pressure_sealevel;temperature;humidity
75008;BME280;63554;48.940;12.050;2023-02-12T00:01:36;99241.41;;;3.25;80.96
75008;BME280;63554;48.940;12.050;2023-02-12T00:05:39;99240.81;;;3.21;81.03
75008;BME280;63554;48.940;12.050;2023-02-12T00:09:44;99231.69;;;3.24;81.26
75008;BME280;63554;48.940;12.050;2023-02-12T00:13:46;99227.44;;;3.21;81.32
75008;BME280;63554;48.940;12.050;2023-02-12T00:17:49;99220.38;;;3.20;81.44
75008;BME280;63554;48.940;12.050;2023-02-12T00:21:52;99219.41;;;3.21;81.17
75008;BME280;63554;48.940;12.050;2023-02-12T00:25:56;99226.34;;;3.24;80.71
75008;BME280;63554;48.940;12.050;2023-02-12T00:29:58;99224.91;;;3.20;80.99
75008;BME280;63554;48.940;12.050;2023-02-12T00:34:01;99230.59;;;3.15;81.00
75008;BME280;63554;48.940;12.050;2023-02-12T00:38:04;99232.09;;;3.08;80.97
75008;BME280;63554;48.940;12.050;2023-02-12T00:42:08;99237.47;;;3.08;81.43
75008;BME280;63554;48.940;12.050;2023-02-12T00:46:10;99233.44;;;3.02;81.54
75008;BME280;63554;48.940;12.050;2023-02-12T00:50:13;99238.19;;;2.99;81.74
75008;BME280;63554;48.940;12.050;2023-02-12T00:54:16;99241.22;;;2.94;81.72
75008;BME280;63554;48.940;12.050;2023-02-12T00:58:20;99251.91;;;2.94;82.00
75008;BME280;63554;48.940;12.050;2023-02-12T01:02:23;99242.34;;;2.91;81.92
75008;BME280;63554;48.940;12.050;2023-02-12T01:06:26;99243.31;;;2.90;82.09
75008;BME280;63554;48.940;12.050;2023-02-12T01:10:28;99250.75;;;2.87;82.37
75008;BME280;63554;48.940;12.050;2023-02-12T01:14:33;99244.78;;;2.83;82.53
75008;BME280;63554;48.940;12.050;2023-02-12T01:18:36;99263.84;;;2.90;82.43
75008;BME280;63554;48.940;12.050;2023-02-12T01:22:39;99266.41;;;2.91;82.36
75008;BME280;63554;48.940;12.050;2023-02-12T01:26:42;99265.69;;;2.89;82.10
75008;BME280;63554;48.940;12.050;2023-02-12T01:30:46;99264.84;;;2.89;81.77
75008;BME280;63554;48.940;12.050;2023-02-12T01:34:49;99271.75;;;2.91;81.81
75008;BME280;63554;48.940;12.050;2023-02-12T01:38:51;99266.28;;;2.93;82.10
75008;BME280;63554;48.940;12.050;2023-02-12T01:42:54;99252.69;;;2.85;82.15
75008;BME280;63554;48.940;12.050;2023-02-12T01:46:59;99257.03;;;2.86;82.24
75008;BME280;63554;48.940;12.050;2023-02-12T01:51:03;99261.94;;;2.81;82.37
75008;BME280;63554;48.940;12.050;2023-02-12T01:55:07;99262.78;;;2.81;82.81
75008;BME280;63554;48.940;12.050;2023-02-12T01:59:11;99263.00;;;2.78;82.49
75008;BME280;63554;48.940;12.050;2023-02-12T02:03:16;99267.28;;;2.81;82.57
75008;BME280;63554;48.940;12.050;2023-02-12T02:07:18;99261.22;;;2.79;82.35
75008;BME280;63554;48.940;12.050;2023-02-12T02:11:21;99261.56;;;2.74;82.93
75008;BME280;63554;48.940;12.050;2023-02-12T02:15:46;99270.91;;;2.68;83.29
75008;BME280;63554;48.940;12.050;2023-02-12T02:24:52;99272.28;;;2.63;83.37
75008;BME280;63554;48.940;12.050;2023-02-12T02:29:18;99274.94;;;2.63;83.64
75008;BME280;63554;48.940;12.050;2023-02-12T02:33:33;99277.63;;;2.63;83.83
75008;BME280;63554;48.940;12.050;2023-02-12T02:37:41;99267.88;;;2.62;83.96
75008;BME280;63554;48.940;12.050;2023-02-12T02:41:49;99263.13;;;2.54;83.86
75008;BME280;63554;48.940;12.050;2023-02-12T02:46:00;99269.47;;;2.53;84.29
75008;BME280;63554;48.940;12.050;2023-02-12T02:50:09;99268.88;;;2.49;84.17
75008;BME280;63554;48.940;12.050;2023-02-12T02:54:16;99274.06;;;2.51;84.47
75008;BME280;63554;48.940;12.050;2023-02-12T02:58:23;99272.25;;;2.51;84.64
75008;BME280;63554;48.940;12.050;2023-02-12T03:02:30;99264.47;;;2.48;84.93
75008;BME280;63554;48.940;12.050;2023-02-12T03:06:40;99274.44;;;2.46;85.44
75008;BME280;63554;48.940;12.050;2023-02-12T03:10:47;99265.19;;;2.39;86.29
75008;BME280;63554;48.940;12.050;2023-02-12T03:14:53;99261.78;;;2.37;86.93
75008;BME280;63554;48.940;12.050;2023-02-12T03:19:01;99272.84;;;2.32;87.00
75008;BME280;63554;48.940;12.050;2023-02-12T03:23:10;99272.00;;;2.32;87.54
75008;BME280;63554;48.940;12.050;2023-02-12T03:27:15;99266.53;;;2.22;88.04
75008;BME280;63554;48.940;12.050;2023-02-12T03:31:26;99275.63;;;2.20;88.56
75008;BME280;63554;48.940;12.050;2023-02-12T03:35:36;99271.25;;;2.18;89.03
75008;BME280;63554;48.940;12.050;2023-02-12T03:39:49;99279.00;;;2.10;89.65
75008;BME280;63554;48.940;12.050;2023-02-12T03:43:58;99290.53;;;2.11;90.20
75008;BME280;63554;48.940;12.050;2023-02-12T03:48:10;99299.38;;;2.11;90.20
75008;BME280;63554;48.940;12.050;2023-02-12T03:52:15;99298.44;;;2.12;90.33
75008;BME280;63554;48.940;12.050;2023-02-12T03:56:23;99300.47;;;2.09;90.97
75008;BME280;63554;48.940;12.050;2023-02-12T04:00:26;99299.38;;;2.00;91.15
75008;BME280;63554;48.940;12.050;2023-02-12T04:04:30;99307.63;;;1.97;91.40
75008;BME280;63554;48.940;12.050;2023-02-12T04:08:33;99310.28;;;1.97;91.66
75008;BME280;63554;48.940;12.050;2023-02-12T04:12:42;99310.88;;;1.89;91.92
75008;BME280;63554;48.940;12.050;2023-02-12T04:16:51;99314.22;;;1.80;92.22
75008;BME280;63554;48.940;12.050;2023-02-12T04:21:01;99314.00;;;1.83;92.59
75008;BME280;63554;48.940;12.050;2023-02-12T04:25:16;99320.75;;;1.76;92.50
75008;BME280;63554;48.940;12.050;2023-02-12T04:29:27;99316.72;;;1.70;92.86
75008;BME280;63554;48.940;12.050;2023-02-12T04:33:36;99331.06;;;1.69;92.97
75008;BME280;63554;48.940;12.050;2023-02-12T04:37:43;99328.28;;;1.71;93.23
75008;BME280;63554;48.940;12.050;2023-02-12T04:41:46;99333.09;;;1.66;93.40
75008;BME280;63554;48.940;12.050;2023-02-12T04:45:51;99339.28;;;1.66;93.50
75008;BME280;63554;48.940;12.050;2023-02-12T04:49:54;99343.66;;;1.67;93.26
75008;BME280;63554;48.940;12.050;2023-02-12T04:53:56;99343.66;;;1.67;93.35
75008;BME280;63554;48.940;12.050;2023-02-12T04:57:59;99333.44;;;1.61;93.66
75008;BME280;63554;48.940;12.050;2023-02-12T05:02:03;99346.88;;;1.60;93.21
75008;BME280;63554;48.940;12.050;2023-02-12T05:06:07;99342.63;;;1.57;93.62
75008;BME280;63554;48.940;12.050;2023-02-12T05:10:10;99344.69;;;1.53;93.72
75008;BME280;63554;48.940;12.050;2023-02-12T05:14:13;99347.44;;;1.52;93.83
75008;BME280;63554;48.940;12.050;2023-02-12T05:18:17;99352.78;;;1.52;93.71
75008;BME280;63554;48.940;12.050;2023-02-12T05:22:19;99360.69;;;1.53;93.88
75008;BME280;63554;48.940;12.050;2023-02-12T05:26:22;99355.34;;;1.53;93.87
75008;BME280;63554;48.940;12.050;2023-02-12T05:30:25;99366.75;;;1.55;93.88
75008;BME280;63554;48.940;12.050;2023-02-12T05:34:29;99367.72;;;1.54;93.85
75008;BME280;63554;48.940;12.050;2023-02-12T05:38:31;99371.25;;;1.55;93.90
75008;BME280;63554;48.940;12.050;2023-02-12T05:42:34;99365.03;;;1.54;93.80
75008;BME280;63554;48.940;12.050;2023-02-12T05:46:37;99369.63;;;1.52;93.95
75008;BME280;63554;48.940;12.050;2023-02-12T05:50:41;99368.78;;;1.52;93.78
75008;BME280;63554;48.940;12.050;2023-02-12T05:54:44;99358.69;;;1.44;93.94
75008;BME280;63554;48.940;12.050;2023-02-12T05:58:50;99355.19;;;1.44;93.99
75008;BME280;63554;48.940;12.050;2023-02-12T06:02:53;99359.44;;;1.46;93.82
75008;BME280;63554;48.940;12.050;2023-02-12T06:06:59;99359.94;;;1.51;93.99
75008;BME280;63554;48.940;12.050;2023-02-12T06:11:03;99361.31;;;1.57;93.81
75008;BME280;63554;48.940;12.050;2023-02-12T06:15:07;99370.47;;;1.53;93.59
75008;BME280;63554;48.940;12.050;2023-02-12T06:19:09;99370.38;;;1.54;93.41
75008;BME280;63554;48.940;12.050;2023-02-12T06:23:13;99384.13;;;1.61;93.46
75008;BME280;63554;48.940;12.050;2023-02-12T06:27:16;99393.72;;;1.64;93.41
75008;BME280;63554;48.940;12.050;2023-02-12T06:31:21;99388.75;;;1.59;93.24
75008;BME280;63554;48.940;12.050;2023-02-12T06:35:24;99397.59;;;1.60;93.00
75008;BME280;63554;48.940;12.050;2023-02-12T06:39:28;99400.59;;;1.55;92.95
75008;BME280;63554;48.940;12.050;2023-02-12T06:43:31;99397.41;;;1.50;92.94
75008;BME280;63554;48.940;12.050;2023-02-12T06:47:34;99394.22;;;2.17;95.01
75008;BME280;63554;48.940;12.050;2023-02-12T06:51:36;99392.56;;;2.63;95.44
75008;BME280;63554;48.940;12.050;2023-02-12T06:55:42;99394.50;;;3.06;95.54
75008;BME280;63554;48.940;12.050;2023-02-12T06:59:45;99402.66;;;2.35;93.03
75008;BME280;63554;48.940;12.050;2023-02-12T07:03:49;99402.31;;;2.04;92.51
75008;BME280;63554;48.940;12.050;2023-02-12T07:07:52;99403.94;;;1.94;92.56
75008;BME280;63554;48.940;12.050;2023-02-12T07:11:56;99401.88;;;1.86;92.43
75008;BME280;63554;48.940;12.050;2023-02-12T07:16:02;99410.19;;;1.82;92.41
75008;BME280;63554;48.940;12.050;2023-02-12T07:20:06;99411.78;;;1.84;92.51
75008;BME280;63554;48.940;12.050;2023-02-12T07:24:09;99417.25;;;1.83;92.36
75008;BME280;63554;48.940;12.050;2023-02-12T07:28:14;99429.31;;;1.88;92.31
75008;BME280;63554;48.940;12.050;2023-02-12T07:32:17;99428.44;;;1.88;91.87
75008;BME280;63554;48.940;12.050;2023-02-12T07:36:20;99420.16;;;1.80;92.21
75008;BME280;63554;48.940;12.050;2023-02-12T07:40:22;99410.13;;;1.70;92.32
75008;BME280;63554;48.940;12.050;2023-02-12T07:44:26;99412.94;;;1.69;92.66
75008;BME280;63554;48.940;12.050;2023-02-12T07:48:29;99414.84;;;2.15;94.07
75008;BME280;63554;48.940;12.050;2023-02-12T07:52:32;99421.19;;;2.61;94.13
75008;BME280;63554;48.940;12.050;2023-02-12T07:56:35;99413.69;;;2.30;90.94
75008;BME280;63554;48.940;12.050;2023-02-12T08:00:40;99414.00;;;2.14;91.38
75008;BME280;63554;48.940;12.050;2023-02-12T08:04:43;99421.19;;;2.61;94.21
75008;BME280;63554;48.940;12.050;2023-02-12T08:08:46;99406.03;;;2.61;91.02
75008;BME280;63554;48.940;12.050;2023-02-12T08:12:48;99410.44;;;2.38;90.67
75008;BME280;63554;48.940;12.050;2023-02-12T08:16:52;99417.94;;;2.33;90.66
75008;BME280;63554;48.940;12.050;2023-02-12T08:21:00;99418.66;;;2.24;90.99
75008;BME280;63554;48.940;12.050;2023-02-12T08:25:03;99420.34;;;2.25;91.19
75008;BME280;63554;48.940;12.050;2023-02-12T08:29:07;99420.28;;;2.37;91.51
75008;BME280;63554;48.940;12.050;2023-02-12T08:33:11;99426.47;;;2.38;91.15
75008;BME280;63554;48.940;12.050;2023-02-12T08:37:14;99427.22;;;2.40;91.29
75008;BME280;63554;48.940;12.050;2023-02-12T08:41:18;99422.81;;;2.39;91.53
75008;BME280;63554;48.940;12.050;2023-02-12T08:45:22;99427.00;;;2.43;91.52
75008;BME280;63554;48.940;12.050;2023-02-12T08:49:28;99421.28;;;2.48;91.41
75008;BME280;63554;48.940;12.050;2023-02-12T08:53:31;99425.94;;;2.57;91.53
75008;BME280;63554;48.940;12.050;2023-02-12T08:57:33;99430.34;;;2.69;91.14
75008;BME280;63554;48.940;12.050;2023-02-12T09:01:37;99421.81;;;2.64;90.64
75008;BME280;63554;48.940;12.050;2023-02-12T09:05:43;99427.16;;;2.64;90.82
75008;BME280;63554;48.940;12.050;2023-02-12T09:09:46;99425.09;;;2.68;90.87
75008;BME280;63554;48.940;12.050;2023-02-12T09:13:49;99427.69;;;2.81;90.68
75008;BME280;63554;48.940;12.050;2023-02-12T09:17:51;99435.72;;;2.92;90.41
75008;BME280;63554;48.940;12.050;2023-02-12T09:21:56;99439.63;;;2.99;90.41
75008;BME280;63554;48.940;12.050;2023-02-12T09:25:58;99441.00;;;3.16;90.03
75008;BME280;63554;48.940;12.050;2023-02-12T09:30:01;99437.94;;;3.21;89.75
75008;BME280;63554;48.940;12.050;2023-02-12T09:34:05;99447.91;;;3.30;89.34
75008;BME280;63554;48.940;12.050;2023-02-12T09:38:09;99442.81;;;3.38;89.08
75008;BME280;63554;48.940;12.050;2023-02-12T09:42:32;99451.06;;;3.46;89.10
75008;BME280;63554;48.940;12.050;2023-02-12T09:46:44;99447.56;;;3.57;88.84
75008;BME280;63554;48.940;12.050;2023-02-12T09:50:51;99453.13;;;3.76;88.40
75008;BME280;63554;48.940;12.050;2023-02-12T09:54:57;99451.50;;;3.85;88.10
75008;BME280;63554;48.940;12.050;2023-02-12T09:59:03;99458.19;;;3.91;87.74
75008;BME280;63554;48.940;12.050;2023-02-12T10:03:10;99460.59;;;4.05;87.57
75008;BME280;63554;48.940;12.050;2023-02-12T10:07:21;99454.25;;;4.18;87.09
75008;BME280;63554;48.940;12.050;2023-02-12T10:11:51;99453.09;;;4.31;87.08
75008;BME280;63554;48.940;12.050;2023-02-12T10:16:04;99458.81;;;4.27;86.28
75008;BME280;63554;48.940;12.050;2023-02-12T10:20:24;99456.53;;;4.22;86.29
75008;BME280;63554;48.940;12.050;2023-02-12T10:24:51;99460.25;;;4.31;86.78
75008;BME280;63554;48.940;12.050;2023-02-12T10:29:08;99459.00;;;4.46;86.06
75008;BME280;63554;48.940;12.050;2023-02-12T10:33:16;99459.19;;;4.54;85.82
75008;BME280;63554;48.940;12.050;2023-02-12T10:37:25;99454.06;;;4.63;85.41
75008;BME280;63554;48.940;12.050;2023-02-12T10:41:30;99452.00;;;4.76;85.68
75008;BME280;63554;48.940;12.050;2023-02-12T10:45:38;99460.34;;;4.94;84.83
75008;BME280;63554;48.940;12.050;2023-02-12T10:49:41;99454.03;;;5.05;84.54
75008;BME280;63554;48.940;12.050;2023-02-12T10:53:45;99449.38;;;5.07;84.26
75008;BME280;63554;48.940;12.050;2023-02-12T10:57:48;99441.50;;;5.15;83.77
75008;BME280;63554;48.940;12.050;2023-02-12T11:01:52;99448.22;;;5.30;83.41
75008;BME280;63554;48.940;12.050;2023-02-12T11:05:55;99450.97;;;5.40;83.30
75008;BME280;63554;48.940;12.050;2023-02-12T11:09:58;99449.50;;;5.57;83.45
75008;BME280;63554;48.940;12.050;2023-02-12T11:14:03;99441.47;;;5.67;81.56
75008;BME280;63554;48.940;12.050;2023-02-12T11:18:20;99429.84;;;5.66;81.79
75008;BME280;63554;48.940;12.050;2023-02-12T11:22:23;99429.91;;;5.86;81.95
75008;BME280;63554;48.940;12.050;2023-02-12T11:26:27;99428.56;;;6.01;80.78
75008;BME280;63554;48.940;12.050;2023-02-12T11:30:31;99415.81;;;6.03;80.50
75008;BME280;63554;48.940;12.050;2023-02-12T11:34:35;99416.69;;;6.04;80.35
75008;BME280;63554;48.940;12.050;2023-02-12T11:38:46;99430.25;;;6.02;80.44
75008;BME280;63554;48.940;12.050;2023-02-12T11:42:51;99421.63;;;5.99;80.77
75008;BME280;63554;48.940;12.050;2023-02-12T11:46:55;99430.41;;;6.01;80.83
75008;BME280;63554;48.940;12.050;2023-02-12T11:51:02;99426.00;;;6.00;80.47
75008;BME280;63554;48.940;12.050;2023-02-12T11:55:16;99435.50;;;6.04;80.23
75008;BME280;63554;48.940;12.050;2023-02-12T11:59:34;99429.28;;;6.13;80.14
75008;BME280;63554;48.940;12.050;2023-02-12T12:03:42;99432.41;;;6.28;79.61
75008;BME280;63554;48.940;12.050;2023-02-12T12:07:52;99428.31;;;6.53;79.61
75008;BME280;63554;48.940;12.050;2023-02-12T12:12:01;99432.97;;;6.70;78.08
75008;BME280;63554;48.940;12.050;2023-02-12T12:16:10;99421.88;;;6.83;77.51
75008;BME280;63554;48.940;12.050;2023-02-12T12:20:38;99416.50;;;6.93;77.39
75008;BME280;63554;48.940;12.050;2023-02-12T12:24:48;99414.63;;;6.93;76.68
75008;BME280;63554;48.940;12.050;2023-02-12T12:29:00;99419.19;;;6.93;76.61
75008;BME280;63554;48.940;12.050;2023-02-12T12:33:12;99416.06;;;6.88;76.34
75008;BME280;63554;48.940;12.050;2023-02-12T12:37:25;99412.38;;;6.99;76.75
75008;BME280;63554;48.940;12.050;2023-02-12T12:41:38;99404.09;;;7.20;78.79
75008;BME280;63554;48.940;12.050;2023-02-12T12:46:04;99412.09;;;7.39;76.32
75008;BME280;63554;48.940;12.050;2023-02-12T12:50:27;99414.59;;;7.50;74.85
75008;BME280;63554;48.940;12.050;2023-02-12T12:54:39;99398.13;;;7.53;76.18
75008;BME280;63554;48.940;12.050;2023-02-12T12:59:03;99401.19;;;7.68;73.79
75008;BME280;63554;48.940;12.050;2023-02-12T13:03:31;99405.09;;;7.74;73.58
75008;BME280;63554;48.940;12.050;2023-02-12T13:07:48;99410.19;;;7.77;74.87
75008;BME280;63554;48.940;12.050;2023-02-12T13:12:09;99403.75;;;7.88;74.54
75008;BME280;63554;48.940;12.050;2023-02-12T13:16:19;99403.59;;;7.89;72.99
75008;BME280;63554;48.940;12.050;2023-02-12T13:20:31;99404.47;;;8.26;73.14
75008;BME280;63554;48.940;12.050;2023-02-12T13:24:42;99397.56;;;9.80;68.11
75008;BME280;63554;48.940;12.050;2023-02-12T13:28:50;99393.31;;;10.45;64.81
75008;BME280;63554;48.940;12.050;2023-02-12T13:33:02;99391.56;;;11.01;62.97
75008;BME280;63554;48.940;12.050;2023-02-12T13:37:13;99388.47;;;11.29;60.80
75008;BME280;63554;48.940;12.050;2023-02-12T13:41:17;99384.72;;;11.38;60.81
75008;BME280;63554;48.940;12.050;2023-02-12T13:45:32;99388.34;;;11.62;59.80
75008;BME280;63554;48.940;12.050;2023-02-12T13:49:44;99386.19;;;11.88;59.00
75008;BME280;63554;48.940;12.050;2023-02-12T13:53:58;99382.91;;;12.01;58.66
75008;BME280;63554;48.940;12.050;2023-02-12T13:58:37;99382.06;;;11.22;59.64
75008;BME280;63554;48.940;12.050;2023-02-12T14:02:42;99380.13;;;10.34;62.08
75008;BME280;63554;48.940;12.050;2023-02-12T14:06:57;99382.41;;;10.04;63.42
75008;BME280;63554;48.940;12.050;2023-02-12T14:11:03;99377.56;;;10.98;61.28
75008;BME280;63554;48.940;12.050;2023-02-12T14:15:10;99387.00;;;11.58;58.54
75008;BME280;63554;48.940;12.050;2023-02-12T14:19:52;99371.28;;;11.84;58.04
75008;BME280;63554;48.940;12.050;2023-02-12T14:28:54;99375.41;;;11.33;59.03
75008;BME280;63554;48.940;12.050;2023-02-12T14:33:22;99382.28;;;10.79;60.69
75008;BME280;63554;48.940;12.050;2023-02-12T14:37:37;99375.84;;;10.72;60.69
75008;BME280;63554;48.940;12.050;2023-02-12T14:41:41;99372.50;;;10.54;61.09
75008;BME280;63554;48.940;12.050;2023-02-12T14:45:44;99366.72;;;10.98;60.37
75008;BME280;63554;48.940;12.050;2023-02-12T14:49:48;99367.53;;;11.06;59.34
75008;BME280;63554;48.940;12.050;2023-02-12T14:53:54;99367.75;;;10.64;60.08
75008;BME280;63554;48.940;12.050;2023-02-12T14:58:02;99375.03;;;10.72;60.30
75008;BME280;63554;48.940;12.050;2023-02-12T15:02:07;99362.34;;;10.80;60.29
75008;BME280;63554;48.940;12.050;2023-02-12T15:06:16;99368.56;;;11.05;59.22
75008;BME280;63554;48.940;12.050;2023-02-12T15:10:22;99355.59;;;11.32;58.51
75008;BME280;63554;48.940;12.050;2023-02-12T15:14:28;99356.16;;;11.19;58.40
75008;BME280;63554;48.940;12.050;2023-02-12T15:18:43;99352.84;;;10.84;59.16
75008;BME280;63554;48.940;12.050;2023-02-12T15:22:49;99348.44;;;10.83;59.38
75008;BME280;63554;48.940;12.050;2023-02-12T15:26:53;99356.91;;;10.72;59.74
75008;BME280;63554;48.940;12.050;2023-02-12T15:30:59;99350.34;;;10.66;59.75
75008;BME280;63554;48.940;12.050;2023-02-12T15:35:02;99351.34;;;10.57;60.40
75008;BME280;63554;48.940;12.050;2023-02-12T15:39:07;99357.09;;;10.54;61.74
75008;BME280;63554;48.940;12.050;2023-02-12T15:43:16;99354.72;;;10.35;63.07
75008;BME280;63554;48.940;12.050;2023-02-12T15:47:20;99356.66;;;9.83;64.67
75008;BME280;63554;48.940;12.050;2023-02-12T15:51:29;99351.63;;;9.38;65.54
75008;BME280;63554;48.940;12.050;2023-02-12T15:55:36;99350.00;;;8.84;67.59
75008;BME280;63554;48.940;12.050;2023-02-12T15:59:41;99349.28;;;8.56;68.60
75008;BME280;63554;48.940;12.050;2023-02-12T16:03:48;99349.47;;;8.55;68.76
75008;BME280;63554;48.940;12.050;2023-02-12T16:07:51;99351.63;;;8.33;69.14
75008;BME280;63554;48.940;12.050;2023-02-12T16:11:55;99356.31;;;8.13;69.88
75008;BME280;63554;48.940;12.050;2023-02-12T16:16:05;99349.16;;;8.04;70.18
75008;BME280;63554;48.940;12.050;2023-02-12T16:20:21;99351.22;;;7.92;70.00
75008;BME280;63554;48.940;12.050;2023-02-12T16:24:30;99356.22;;;7.69;70.04
75008;BME280;63554;48.940;12.050;2023-02-12T16:28:33;99358.81;;;7.33;71.04
75008;BME280;63554;48.940;12.050;2023-02-12T16:32:38;99365.59;;;7.00;71.19
75008;BME280;63554;48.940;12.050;2023-02-12T16:36:46;99364.53;;;6.83;79.60
75008;BME280;63554;48.940;12.050;2023-02-12T16:41:14;99364.16;;;7.05;79.29
75008;BME280;63554;48.940;12.050;2023-02-12T16:45:41;99373.41;;;7.30;76.62
75008;BME280;63554;48.940;12.050;2023-02-12T16:49:52;99372.47;;;6.84;71.62
75008;BME280;63554;48.940;12.050;2023-02-12T16:53:58;99377.63;;;6.09;73.14
75008;BME280;63554;48.940;12.050;2023-02-12T16:58:01;99384.59;;;5.62;75.45
75008;BME280;63554;48.940;12.050;2023-02-12T17:02:09;99391.44;;;5.35;76.39
75008;BME280;63554;48.940;12.050;2023-02-12T17:06:13;99374.03;;;5.20;75.73
75008;BME280;63554;48.940;12.050;2023-02-12T17:10:17;99382.84;;;5.01;75.79
75008;BME280;63554;48.940;12.050;2023-02-12T17:14:20;99385.84;;;4.55;76.44
75008;BME280;63554;48.940;12.050;2023-02-12T17:18:23;99388.63;;;4.33;76.84
75008;BME280;63554;48.940;12.050;2023-02-12T17:22:26;99414.88;;;4.18;77.23
75008;BME280;63554;48.940;12.050;2023-02-12T17:26:30;99402.16;;;3.99;77.73
75008;BME280;63554;48.940;12.050;2023-02-12T17:30:33;99407.41;;;4.01;78.39
75008;BME280;63554;48.940;12.050;2023-02-12T17:34:37;99401.41;;;4.08;77.76
75008;BME280;63554;48.940;12.050;2023-02-12T17:38:49;99418.19;;;4.10;77.73
75008;BME280;63554;48.940;12.050;2023-02-12T17:42:53;99411.31;;;3.96;76.21
75008;BME280;63554;48.940;12.050;2023-02-12T17:46:56;99412.47;;;3.71;77.07
75008;BME280;63554;48.940;12.050;2023-02-12T17:50:59;99410.41;;;3.52;77.51
75008;BME280;63554;48.940;12.050;2023-02-12T17:55:02;99409.59;;;3.41;77.89
75008;BME280;63554;48.940;12.050;2023-02-12T17:59:07;99418.22;;;3.55;84.87
75008;BME280;63554;48.940;12.050;2023-02-12T18:03:09;99410.41;;;3.52;80.25
75008;BME280;63554;48.940;12.050;2023-02-12T18:07:12;99411.91;;;3.23;78.61
75008;BME280;63554;48.940;12.050;2023-02-12T18:11:15;99404.72;;;2.89;79.27
75008;BME280;63554;48.940;12.050;2023-02-12T18:15:20;99409.09;;;2.79;80.29
75008;BME280;63554;48.940;12.050;2023-02-12T18:19:23;99401.56;;;2.73;80.17
75008;BME280;63554;48.940;12.050;2023-02-12T18:23:26;99417.13;;;2.79;79.50
75008;BME280;63554;48.940;12.050;2023-02-12T18:27:29;99414.66;;;2.76;79.82
75008;BME280;63554;48.940;12.050;2023-02-12T18:31:33;99412.50;;;2.81;80.11
75008;BME280;63554;48.940;12.050;2023-02-12T18:35:36;99410.19;;;2.76;80.01
75008;BME280;63554;48.940;12.050;2023-02-12T18:39:41;99423.13;;;2.58;78.91
75008;BME280;63554;48.940;12.050;2023-02-12T18:43:44;99416.72;;;2.26;80.11
75008;BME280;63554;48.940;12.050;2023-02-12T18:47:48;99416.50;;;2.05;80.71
75008;BME280;63554;48.940;12.050;2023-02-12T18:51:51;99413.69;;;1.95;80.24
75008;BME280;63554;48.940;12.050;2023-02-12T18:55:54;99409.44;;;1.92;80.87
75008;BME280;63554;48.940;12.050;2023-02-12T18:59:56;99411.75;;;1.97;81.41
75008;BME280;63554;48.940;12.050;2023-02-12T19:04:02;99411.97;;;1.94;81.01
75008;BME280;63554;48.940;12.050;2023-02-12T19:08:05;99401.00;;;1.86;80.78
75008;BME280;63554;48.940;12.050;2023-02-12T19:12:08;99406.59;;;1.83;81.29
75008;BME280;63554;48.940;12.050;2023-02-12T19:16:14;99407.31;;;1.85;81.77
75008;BME280;63554;48.940;12.050;2023-02-12T19:20:19;99395.00;;;1.71;82.08
75008;BME280;63554;48.940;12.050;2023-02-12T19:24:21;99411.97;;;1.70;82.15
75008;BME280;63554;48.940;12.050;2023-02-12T19:28:24;99405.34;;;1.63;82.45
75008;BME280;63554;48.940;12.050;2023-02-12T19:32:27;99412.50;;;1.62;83.00
75008;BME280;63554;48.940;12.050;2023-02-12T19:36:32;99413.72;;;1.58;83.69
75008;BME280;63554;48.940;12.050;2023-02-12T19:40:35;99410.09;;;1.59;83.56
75008;BME280;63554;48.940;12.050;2023-02-12T19:44:38;99426.59;;;1.64;83.74
75008;BME280;63554;48.940;12.050;2023-02-12T19:48:41;99429.69;;;1.34;83.78
75008;BME280;63554;48.940;12.050;2023-02-12T19:52:45;99430.34;;;0.99;83.94
75008;BME280;63554;48.940;12.050;2023-02-12T19:56:50;99425.88;;;0.87;84.48
75008;BME280;63554;48.940;12.050;2023-02-12T20:00:53;99437.19;;;0.90;85.80
75008;BME280;63554;48.940;12.050;2023-02-12T20:04:56;99425.22;;;0.96;86.76
75008;BME280;63554;48.940;12.050;2023-02-12T20:09:00;99432.47;;;0.94;86.13
75008;BME280;63554;48.940;12.050;2023-02-12T20:13:03;99438.69;;;0.94;85.36
75008;BME280;63554;48.940;12.050;2023-02-12T20:17:06;99432.50;;;0.81;84.50
75008;BME280;63554;48.940;12.050;2023-02-12T20:21:09;99430.34;;;0.73;84.89
75008;BME280;63554;48.940;12.050;2023-02-12T20:25:15;99447.09;;;0.75;84.74
75008;BME280;63554;48.940;12.050;2023-02-12T20:29:19;99450.38;;;0.66;84.43
75008;BME280;63554;48.940;12.050;2023-02-12T20:33:22;99441.22;;;0.57;84.52
75008;BME280;63554;48.940;12.050;2023-02-12T20:37:24;99445.56;;;0.58;84.98
75008;BME280;63554;48.940;12.050;2023-02-12T20:41:28;99457.28;;;0.56;84.49
75008;BME280;63554;48.940;12.050;2023-02-12T20:45:31;99450.13;;;0.44;84.42
75008;BME280;63554;48.940;12.050;2023-02-12T20:49:36;99450.56;;;0.37;85.05
75008;BME280;63554;48.940;12.050;2023-02-12T20:53:39;99453.72;;;0.30;85.13
75008;BME280;63554;48.940;12.050;2023-02-12T20:57:43;99455.31;;;0.32;85.34
75008;BME280;63554;48.940;12.050;2023-02-12T21:01:46;99446.91;;;0.26;85.46
75008;BME280;63554;48.940;12.050;2023-02-12T21:05:49;99451.47;;;0.24;85.40
75008;BME280;63554;48.940;12.050;2023-02-12T21:09:51;99446.91;;;0.26;85.35
75008;BME280;63554;48.940;12.050;2023-02-12T21:13:58;99441.59;;;0.26;85.47
75008;BME280;63554;48.940;12.050;2023-02-12T21:18:21;99451.06;;;0.30;86.50
75008;BME280;63554;48.940;12.050;2023-02-12T21:22:25;99445.00;;;0.28;86.82
75008;BME280;63554;48.940;12.050;2023-02-12T21:26:30;99445.09;;;0.26;87.24
75008;BME280;63554;48.940;12.050;2023-02-12T21:30:34;99444.78;;;0.31;87.61
75008;BME280;63554;48.940;12.050;2023-02-12T21:34:37;99447.25;;;0.34;88.67
75008;BME280;63554;48.940;12.050;2023-02-12T21:38:41;99455.66;;;0.28;88.97
75008;BME280;63554;48.940;12.050;2023-02-12T21:42:44;99443.88;;;0.17;89.10
75008;BME280;63554;48.940;12.050;2023-02-12T21:46:48;99449.19;;;0.17;89.41
75008;BME280;63554;48.940;12.050;2023-02-12T21:50:51;99441.22;;;0.17;89.15
75008;BME280;63554;48.940;12.050;2023-02-12T21:54:54;99439.63;;;0.15;89.89